sensor_id;sensor_type;location;lat;lon;timestamp;temperature;humidity
23723;DHT22;12042;52.136;5.584;2022-09-29T00:01:42;8.50;99.90
23723;DHT22;12042;52.136;5.584;2022-09-29T00:04:07;8.60;99.90
23723;DHT22;12042;52.136;5.584;2022-09-29T00:06:34;8.50;99.90
23723;DHT22;12042;52.136;5.584;2022-09-29T00:08:59;8.40;99.90
23723;DHT22;12042;52.136;5.584;2022-09-29T00:11:25;8.40;99.90
23723;DHT22;12042;52.136;5.584;2022-09-29T00:13:50;8.30;99.90
23723;DHT22;12042;52.136;5.584;2022-09-29T00:16:23;8.30;99.90
23723;DHT22;12042;52.136;5.584;2022-09-29T00:18:53;8.20;99.90
23723;DHT22;12042;52.136;5.584;2022-09-29T00:21:18;8.10;99.90
23723;DHT22;12042;52.136;5.584;2022-09-29T00:23:45;8.10;99.90
23723;DHT22;12042;52.136;5.584;2022-09-29T00:26:13;8.10;99.90
23723;DHT22;12042;52.136;5.584;2022-09-29T00:28:41;8.00;99.90
23723;DHT22;12042;52.136;5.584;2022-09-29T00:31:10;8.00;99.90
23723;DHT22;12042;52.136;5.584;2022-09-29T00:33:37;8.10;99.90
23723;DHT22;12042;52.136;5.584;2022-09-29T00:36:05;8.00;99.90
23723;DHT22;12042;52.136;5.584;2022-09-29T00:38:32;8.00;99.90
23723;DHT22;12042;52.136;5.584;2022-09-29T00:40:58;8.00;99.90
23723;DHT22;12042;52.136;5.584;2022-09-29T00:46:36;8.00;99.90
23723;DHT22;12042;52.136;5.584;2022-09-29T00:49:37;7.90;99.90
23723;DHT22;12042;52.136;5.584;2022-09-29T00:52:07;7.90;99.90
23723;DHT22;12042;52.136;5.584;2022-09-29T00:54:40;7.90;99.90
23723;DHT22;12042;52.136;5.584;2022-09-29T00:57:08;7.90;99.90
23723;DHT22;12042;52.136;5.584;2022-09-29T00:59:58;7.80;99.90
23723;DHT22;12042;52.136;5.584;2022-09-29T01:02:26;7.70;99.90
23723;DHT22;12042;52.136;5.584;2022-09-29T01:04:54;7.60;99.90
23723;DHT22;12042;52.136;5.584;2022-09-29T01:07:23;7.60;99.90
23723;DHT22;12042;52.136;5.584;2022-09-29T01:09:51;7.50;99.90
23723;DHT22;12042;52.136;5.584;2022-09-29T01:12:19;7.50;99.90
23723;DHT22;12042;52.136;5.584;2022-09-29T01:14:45;7.40;99.90
23723;DHT22;12042;52.136;5.584;2022-09-29T01:17:12;7.30;99.90
23723;DHT22;12042;52.136;5.584;2022-09-29T01:23:07;7.20;99.90
23723;DHT22;12042;52.136;5.584;2022-09-29T01:28:37;7.10;99.90
23723;DHT22;12042;52.136;5.584;2022-09-29T01:45:37;7.00;99.90
23723;DHT22;12042;52.136;5.584;2022-09-29T01:48:14;7.10;99.90
23723;DHT22;12042;52.136;5.584;2022-09-29T01:50:45;7.10;99.90
23723;DHT22;12042;52.136;5.584;2022-09-29T01:53:15;7.10;99.90
23723;DHT22;12042;52.136;5.584;2022-09-29T01:55:50;7.10;99.90
23723;DHT22;12042;52.136;5.584;2022-09-29T01:58:20;7.10;99.90
23723;DHT22;12042;52.136;5.584;2022-09-29T02:00:53;7.00;99.90
23723;DHT22;12042;52.136;5.584;2022-09-29T02:05:57;7.00;99.90
23723;DHT22;12042;52.136;5.584;2022-09-29T02:11:08;7.00;99.90
23723;DHT22;12042;52.136;5.584;2022-09-29T02:16:20;7.00;99.90
23723;DHT22;12042;52.136;5.584;2022-09-29T02:21:16;6.90;99.90
23723;DHT22;12042;52.136;5.584;2022-09-29T02:23:42;6.80;99.90
23723;DHT22;12042;52.136;5.584;2022-09-29T02:26:09;6.80;99.90
23723;DHT22;12042;52.136;5.584;2022-09-29T02:28:36;6.80;99.90
23723;DHT22;12042;52.136;5.584;2022-09-29T02:31:04;6.80;99.90
23723;DHT22;12042;52.136;5.584;2022-09-29T02:33:30;6.80;99.90
23723;DHT22;12042;52.136;5.584;2022-09-29T02:36:11;6.80;99.90
23723;DHT22;12042;52.136;5.584;2022-09-29T02:39:00;6.80;99.90
23723;DHT22;12042;52.136;5.584;2022-09-29T02:49:57;6.60;99.90
23723;DHT22;12042;52.136;5.584;2022-09-29T02:52:35;6.50;99.90
23723;DHT22;12042;52.136;5.584;2022-09-29T02:57:50;6.40;99.90
23723;DHT22;12042;52.136;5.584;2022-09-29T03:00:18;6.40;99.90
23723;DHT22;12042;52.136;5.584;2022-09-29T03:02:45;6.50;99.90
23723;DHT22;12042;52.136;5.584;2022-09-29T03:05:15;6.50;99.90
23723;DHT22;12042;52.136;5.584;2022-09-29T03:07:42;6.50;99.90
23723;DHT22;12042;52.136;5.584;2022-09-29T03:10:09;6.40;99.90
23723;DHT22;12042;52.136;5.584;2022-09-29T03:12:35;6.40;99.90
23723;DHT22;12042;52.136;5.584;2022-09-29T03:15:01;6.40;99.90
23723;DHT22;12042;52.136;5.584;2022-09-29T03:17:27;6.40;99.90
23723;DHT22;12042;52.136;5.584;2022-09-29T03:19:53;6.40;99.90
23723;DHT22;12042;52.136;5.584;2022-09-29T03:22:18;6.30;99.90
23723;DHT22;12042;52.136;5.584;2022-09-29T03:24:44;6.30;99.90
23723;DHT22;12042;52.136;5.584;2022-09-29T03:27:10;6.40;99.90
23723;DHT22;12042;52.136;5.584;2022-09-29T03:29:38;6.40;99.90
23723;DHT22;12042;52.136;5.584;2022-09-29T03:32:04;6.40;99.90
23723;DHT22;12042;52.136;5.584;2022-09-29T03:34:30;6.40;99.90
23723;DHT22;12042;52.136;5.584;2022-09-29T03:36:56;6.30;99.90
23723;DHT22;12042;52.136;5.584;2022-09-29T03:39:22;6.20;99.90
23723;DHT22;12042;52.136;5.584;2022-09-29T03:41:48;6.20;99.90
23723;DHT22;12042;52.136;5.584;2022-09-29T03:44:14;6.20;99.90
23723;DHT22;12042;52.136;5.584;2022-09-29T03:46:40;6.20;99.90
23723;DHT22;12042;52.136;5.584;2022-09-29T03:49:09;6.10;99.90
23723;DHT22;12042;52.136;5.584;2022-09-29T03:51:36;6.10;99.90
23723;DHT22;12042;52.136;5.584;2022-09-29T03:54:01;6.00;99.90
23723;DHT22;12042;52.136;5.584;2022-09-29T03:56:27;6.00;99.90
23723;DHT22;12042;52.136;5.584;2022-09-29T03:58:52;6.00;99.90
23723;DHT22;12042;52.136;5.584;2022-09-29T04:01:18;6.00;99.90
23723;DHT22;12042;52.136;5.584;2022-09-29T04:03:44;6.00;99.90
23723;DHT22;12042;52.136;5.584;2022-09-29T04:06:12;5.90;99.90
23723;DHT22;12042;52.136;5.584;2022-09-29T04:08:38;5.90;99.90
23723;DHT22;12042;52.136;5.584;2022-09-29T04:11:04;6.00;99.90
23723;DHT22;12042;52.136;5.584;2022-09-29T04:13:32;6.00;99.90
23723;DHT22;12042;52.136;5.584;2022-09-29T04:16:03;5.90;99.90
23723;DHT22;12042;52.136;5.584;2022-09-29T04:18:30;5.90;99.90
23723;DHT22;12042;52.136;5.584;2022-09-29T04:20:56;6.00;99.90
23723;DHT22;12042;52.136;5.584;2022-09-29T04:23:25;6.00;99.90
23723;DHT22;12042;52.136;5.584;2022-09-29T04:25:52;6.00;99.90
23723;DHT22;12042;52.136;5.584;2022-09-29T04:28:17;6.10;99.90
23723;DHT22;12042;52.136;5.584;2022-09-29T04:30:43;6.10;99.90
23723;DHT22;12042;52.136;5.584;2022-09-29T04:33:08;6.00;99.90
23723;DHT22;12042;52.136;5.584;2022-09-29T04:35:34;5.90;99.90
23723;DHT22;12042;52.136;5.584;2022-09-29T04:38:00;5.80;99.90
23723;DHT22;12042;52.136;5.584;2022-09-29T04:40:26;5.80;99.90
23723;DHT22;12042;52.136;5.584;2022-09-29T04:42:51;5.80;99.90
23723;DHT22;12042;52.136;5.584;2022-09-29T04:45:17;5.80;99.90
23723;DHT22;12042;52.136;5.584;2022-09-29T04:47:42;5.80;99.90
23723;DHT22;12042;52.136;5.584;2022-09-29T04:50:08;5.80;99.90
23723;DHT22;12042;52.136;5.584;2022-09-29T04:52:34;5.80;99.90
23723;DHT22;12042;52.136;5.584;2022-09-29T04:55:02;5.80;99.90
23723;DHT22;12042;52.136;5.584;2022-09-29T04:57:30;5.90;99.90
23723;DHT22;12042;52.136;5.584;2022-09-29T04:59:56;5.90;99.90
23723;DHT22;12042;52.136;5.584;2022-09-29T05:02:21;5.90;99.90
23723;DHT22;12042;52.136;5.584;2022-09-29T05:04:47;6.00;99.90
23723;DHT22;12042;52.136;5.584;2022-09-29T05:07:14;5.90;99.90
23723;DHT22;12042;52.136;5.584;2022-09-29T05:09:39;5.80;99.90
23723;DHT22;12042;52.136;5.584;2022-09-29T05:12:05;5.70;99.90
23723;DHT22;12042;52.136;5.584;2022-09-29T05:14:31;5.70;99.90
23723;DHT22;12042;52.136;5.584;2022-09-29T05:16:57;5.60;99.90
23723;DHT22;12042;52.136;5.584;2022-09-29T05:19:22;5.50;99.90
23723;DHT22;12042;52.136;5.584;2022-09-29T05:21:48;5.50;99.90
23723;DHT22;12042;52.136;5.584;2022-09-29T05:24:14;5.40;99.90
23723;DHT22;12042;52.136;5.584;2022-09-29T05:26:39;5.40;99.90
23723;DHT22;12042;52.136;5.584;2022-09-29T05:29:05;5.30;99.90
23723;DHT22;12042;52.136;5.584;2022-09-29T05:31:31;5.40;99.90
23723;DHT22;12042;52.136;5.584;2022-09-29T05:33:59;5.40;99.90
23723;DHT22;12042;52.136;5.584;2022-09-29T05:36:25;5.40;99.90
23723;DHT22;12042;52.136;5.584;2022-09-29T05:38:50;5.50;99.90
23723;DHT22;12042;52.136;5.584;2022-09-29T05:41:16;5.60;99.90
23723;DHT22;12042;52.136;5.584;2022-09-29T05:43:47;5.70;99.90
23723;DHT22;12042;52.136;5.584;2022-09-29T05:46:13;5.70;99.90
23723;DHT22;12042;52.136;5.584;2022-09-29T05:48:39;5.60;99.90
23723;DHT22;12042;52.136;5.584;2022-09-29T05:51:07;5.50;99.90
23723;DHT22;12042;52.136;5.584;2022-09-29T05:53:34;5.40;99.90
23723;DHT22;12042;52.136;5.584;2022-09-29T05:56:06;5.40;99.90
23723;DHT22;12042;52.136;5.584;2022-09-29T05:58:33;5.40;99.90
23723;DHT22;12042;52.136;5.584;2022-09-29T06:00:58;5.40;99.90
23723;DHT22;12042;52.136;5.584;2022-09-29T06:03:24;5.40;99.90
23723;DHT22;12042;52.136;5.584;2022-09-29T06:05:50;5.40;99.90
23723;DHT22;12042;52.136;5.584;2022-09-29T06:08:15;5.40;99.90
23723;DHT22;12042;52.136;5.584;2022-09-29T06:10:41;5.40;99.90
23723;DHT22;12042;52.136;5.584;2022-09-29T06:13:06;5.50;99.90
23723;DHT22;12042;52.136;5.584;2022-09-29T06:15:33;5.60;99.90
23723;DHT22;12042;52.136;5.584;2022-09-29T06:17:59;5.70;99.90
23723;DHT22;12042;52.136;5.584;2022-09-29T06:20:26;5.80;99.90
23723;DHT22;12042;52.136;5.584;2022-09-29T06:22:55;5.80;99.90
23723;DHT22;12042;52.136;5.584;2022-09-29T06:25:23;5.80;99.90
23723;DHT22;12042;52.136;5.584;2022-09-29T06:27:49;5.70;99.90
23723;DHT22;12042;52.136;5.584;2022-09-29T06:30:15;5.80;99.90
23723;DHT22;12042;52.136;5.584;2022-09-29T06:32:41;5.80;99.90
23723;DHT22;12042;52.136;5.584;2022-09-29T06:35:07;6.00;99.90
23723;DHT22;12042;52.136;5.584;2022-09-29T06:37:53;6.10;99.90
23723;DHT22;12042;52.136;5.584;2022-09-29T06:40:20;6.10;99.90
23723;DHT22;12042;52.136;5.584;2022-09-29T06:42:47;6.20;99.90
23723;DHT22;12042;52.136;5.584;2022-09-29T06:45:14;6.20;99.90
23723;DHT22;12042;52.136;5.584;2022-09-29T06:47:40;6.30;99.90
23723;DHT22;12042;52.136;5.584;2022-09-29T06:50:05;6.30;99.90
23723;DHT22;12042;52.136;5.584;2022-09-29T06:52:31;6.30;99.90
23723;DHT22;12042;52.136;5.584;2022-09-29T06:54:57;6.40;99.90
23723;DHT22;12042;52.136;5.584;2022-09-29T06:57:22;6.40;99.90
23723;DHT22;12042;52.136;5.584;2022-09-29T06:59:48;6.40;99.90
23723;DHT22;12042;52.136;5.584;2022-09-29T07:02:13;6.40;99.90
23723;DHT22;12042;52.136;5.584;2022-09-29T07:04:39;6.40;99.90
23723;DHT22;12042;52.136;5.584;2022-09-29T07:07:05;6.50;99.90
23723;DHT22;12042;52.136;5.584;2022-09-29T07:09:30;6.50;99.90
23723;DHT22;12042;52.136;5.584;2022-09-29T07:11:56;6.50;99.90
23723;DHT22;12042;52.136;5.584;2022-09-29T07:14:22;6.60;99.90
23723;DHT22;12042;52.136;5.584;2022-09-29T07:16:50;6.60;99.90
23723;DHT22;12042;52.136;5.584;2022-09-29T07:19:17;6.70;99.90
23723;DHT22;12042;52.136;5.584;2022-09-29T07:21:43;6.80;99.90
23723;DHT22;12042;52.136;5.584;2022-09-29T07:24:09;6.90;99.90
23723;DHT22;12042;52.136;5.584;2022-09-29T07:26:35;6.90;99.90
23723;DHT22;12042;52.136;5.584;2022-09-29T07:29:01;6.90;99.90
23723;DHT22;12042;52.136;5.584;2022-09-29T07:31:27;7.00;99.90
23723;DHT22;12042;52.136;5.584;2022-09-29T07:33:53;7.00;99.90
23723;DHT22;12042;52.136;5.584;2022-09-29T07:36:20;7.10;99.90
23723;DHT22;12042;52.136;5.584;2022-09-29T07:38:48;7.20;99.90
23723;DHT22;12042;52.136;5.584;2022-09-29T07:41:15;7.30;99.90
23723;DHT22;12042;52.136;5.584;2022-09-29T07:43:40;7.30;99.90
23723;DHT22;12042;52.136;5.584;2022-09-29T07:46:07;7.40;99.90
23723;DHT22;12042;52.136;5.584;2022-09-29T07:48:33;7.40;99.90
23723;DHT22;12042;52.136;5.584;2022-09-29T07:51:13;7.50;99.90
23723;DHT22;12042;52.136;5.584;2022-09-29T07:53:40;7.60;99.90
23723;DHT22;12042;52.136;5.584;2022-09-29T07:56:17;7.60;99.90
23723;DHT22;12042;52.136;5.584;2022-09-29T07:58:44;7.70;99.90
23723;DHT22;12042;52.136;5.584;2022-09-29T08:01:13;7.70;99.90
23723;DHT22;12042;52.136;5.584;2022-09-29T08:03:45;7.70;99.90
23723;DHT22;12042;52.136;5.584;2022-09-29T08:06:13;7.80;99.90
23723;DHT22;12042;52.136;5.584;2022-09-29T08:08:41;7.80;99.90
23723;DHT22;12042;52.136;5.584;2022-09-29T08:11:13;7.80;99.90
23723;DHT22;12042;52.136;5.584;2022-09-29T08:13:38;7.90;99.90
23723;DHT22;12042;52.136;5.584;2022-09-29T08:16:07;7.90;99.90
23723;DHT22;12042;52.136;5.584;2022-09-29T08:18:34;8.00;99.90
23723;DHT22;12042;52.136;5.584;2022-09-29T08:21:03;8.10;99.90
23723;DHT22;12042;52.136;5.584;2022-09-29T08:23:29;8.10;99.90
23723;DHT22;12042;52.136;5.584;2022-09-29T08:26:09;8.10;99.90
23723;DHT22;12042;52.136;5.584;2022-09-29T08:28:36;8.20;99.90
23723;DHT22;12042;52.136;5.584;2022-09-29T08:31:07;8.30;99.90
23723;DHT22;12042;52.136;5.584;2022-09-29T08:33:34;8.30;99.90
23723;DHT22;12042;52.136;5.584;2022-09-29T08:36:01;8.40;99.90
23723;DHT22;12042;52.136;5.584;2022-09-29T08:38:28;8.50;99.90
23723;DHT22;12042;52.136;5.584;2022-09-29T08:40:54;8.60;99.90
23723;DHT22;12042;52.136;5.584;2022-09-29T08:43:26;8.70;99.90
23723;DHT22;12042;52.136;5.584;2022-09-29T08:46:09;8.80;99.90
23723;DHT22;12042;52.136;5.584;2022-09-29T08:48:42;8.80;99.90
23723;DHT22;12042;52.136;5.584;2022-09-29T08:51:24;8.90;99.90
23723;DHT22;12042;52.136;5.584;2022-09-29T08:53:54;8.90;99.90
23723;DHT22;12042;52.136;5.584;2022-09-29T08:56:23;8.90;99.90
23723;DHT22;12042;52.136;5.584;2022-09-29T08:58:51;9.00;99.90
23723;DHT22;12042;52.136;5.584;2022-09-29T09:01:21;9.00;99.90
23723;DHT22;12042;52.136;5.584;2022-09-29T09:15:19;9.40;99.90
23723;DHT22;12042;52.136;5.584;2022-09-29T09:18:24;9.30;99.90
23723;DHT22;12042;52.136;5.584;2022-09-29T09:26:11;9.60;99.90
23723;DHT22;12042;52.136;5.584;2022-09-29T09:28:47;9.70;99.90
23723;DHT22;12042;52.136;5.584;2022-09-29T09:31:32;9.80;99.90
23723;DHT22;12042;52.136;5.584;2022-09-29T09:34:12;9.80;99.90
23723;DHT22;12042;52.136;5.584;2022-09-29T09:41:52;10.00;99.90
23723;DHT22;12042;52.136;5.584;2022-09-29T09:44:23;10.10;99.90
23723;DHT22;12042;52.136;5.584;2022-09-29T09:47:04;10.20;99.90
23723;DHT22;12042;52.136;5.584;2022-09-29T09:49:38;10.20;99.90
23723;DHT22;12042;52.136;5.584;2022-09-29T09:52:16;10.20;99.90
23723;DHT22;12042;52.136;5.584;2022-09-29T09:54:46;10.20;99.90
23723;DHT22;12042;52.136;5.584;2022-09-29T10:02:22;10.50;99.90
23723;DHT22;12042;52.136;5.584;2022-09-29T10:04:50;10.60;99.90
23723;DHT22;12042;52.136;5.584;2022-09-29T10:07:22;10.80;99.90
23723;DHT22;12042;52.136;5.584;2022-09-29T10:09:48;10.90;99.90
23723;DHT22;12042;52.136;5.584;2022-09-29T10:12:16;11.10;99.90
23723;DHT22;12042;52.136;5.584;2022-09-29T10:15:33;11.20;99.90
23723;DHT22;12042;52.136;5.584;2022-09-29T10:17:39;11.30;99.90
23723;DHT22;12042;52.136;5.584;2022-09-29T10:20:07;11.50;99.90
23723;DHT22;12042;52.136;5.584;2022-09-29T10:22:33;11.70;99.90
23723;DHT22;12042;52.136;5.584;2022-09-29T10:27:40;12.10;99.90
23723;DHT22;12042;52.136;5.584;2022-09-29T10:30:17;12.40;99.90
23723;DHT22;12042;52.136;5.584;2022-09-29T10:32:44;12.60;99.90
23723;DHT22;12042;52.136;5.584;2022-09-29T10:35:23;12.70;99.90
23723;DHT22;12042;52.136;5.584;2022-09-29T10:38:00;12.90;99.90
23723;DHT22;12042;52.136;5.584;2022-09-29T10:40:31;13.10;99.90
23723;DHT22;12042;52.136;5.584;2022-09-29T10:42:57;13.40;99.90
23723;DHT22;12042;52.136;5.584;2022-09-29T10:50:30;14.00;99.90
23723;DHT22;12042;52.136;5.584;2022-09-29T10:52:59;14.10;99.90
23723;DHT22;12042;52.136;5.584;2022-09-29T10:55:34;14.20;99.90
23723;DHT22;12042;52.136;5.584;2022-09-29T10:58:17;14.30;99.90
23723;DHT22;12042;52.136;5.584;2022-09-29T11:00:44;14.50;99.90
23723;DHT22;12042;52.136;5.584;2022-09-29T11:03:18;14.70;99.90
23723;DHT22;12042;52.136;5.584;2022-09-29T11:05:57;14.80;99.90
23723;DHT22;12042;52.136;5.584;2022-09-29T11:08:23;14.90;99.90
23723;DHT22;12042;52.136;5.584;2022-09-29T11:11:21;15.10;99.90
23723;DHT22;12042;52.136;5.584;2022-09-29T11:13:48;15.30;99.90
23723;DHT22;12042;52.136;5.584;2022-09-29T11:16:21;15.30;99.90
23723;DHT22;12042;52.136;5.584;2022-09-29T11:18:52;15.40;99.90
23723;DHT22;12042;52.136;5.584;2022-09-29T11:24:30;15.20;99.90
23723;DHT22;12042;52.136;5.584;2022-09-29T11:32:50;14.80;99.90
23723;DHT22;12042;52.136;5.584;2022-09-29T11:35:38;14.90;99.90
23723;DHT22;12042;52.136;5.584;2022-09-29T11:46:19;16.10;99.90
23723;DHT22;12042;52.136;5.584;2022-09-29T11:49:19;16.20;99.90
23723;DHT22;12042;52.136;5.584;2022-09-29T11:52:03;16.40;99.90
23723;DHT22;12042;52.136;5.584;2022-09-29T11:58:00;16.60;99.90
23723;DHT22;12042;52.136;5.584;2022-09-29T12:12:01;17.60;99.90
23723;DHT22;12042;52.136;5.584;2022-09-29T12:14:56;16.90;99.90
23723;DHT22;12042;52.136;5.584;2022-09-29T12:17:27;17.00;99.90
23723;DHT22;12042;52.136;5.584;2022-09-29T12:20:15;17.50;99.90
23723;DHT22;12042;52.136;5.584;2022-09-29T12:22:44;17.70;99.90
23723;DHT22;12042;52.136;5.584;2022-09-29T12:25:16;17.70;99.90
23723;DHT22;12042;52.136;5.584;2022-09-29T12:27:44;17.90;99.90
23723;DHT22;12042;52.136;5.584;2022-09-29T12:30:31;18.10;99.90
23723;DHT22;12042;52.136;5.584;2022-09-29T12:33:22;18.40;99.90
23723;DHT22;12042;52.136;5.584;2022-09-29T12:38:58;18.50;99.90
23723;DHT22;12042;52.136;5.584;2022-09-29T12:41:28;18.70;99.90
23723;DHT22;12042;52.136;5.584;2022-09-29T12:44:02;18.90;99.90
23723;DHT22;12042;52.136;5.584;2022-09-29T12:49:21;19.50;99.90
23723;DHT22;12042;52.136;5.584;2022-09-29T12:51:50;19.50;99.90
23723;DHT22;12042;52.136;5.584;2022-09-29T12:54:30;19.70;99.90
23723;DHT22;12042;52.136;5.584;2022-09-29T12:57:03;19.70;99.90
23723;DHT22;12042;52.136;5.584;2022-09-29T13:16:16;19.90;99.90
23723;DHT22;12042;52.136;5.584;2022-09-29T13:19:04;20.20;99.90
23723;DHT22;12042;52.136;5.584;2022-09-29T13:21:56;20.10;99.90
23723;DHT22;12042;52.136;5.584;2022-09-29T13:29:49;19.90;99.90
23723;DHT22;12042;52.136;5.584;2022-09-29T13:32:19;19.70;99.90
23723;DHT22;12042;52.136;5.584;2022-09-29T13:34:53;19.40;99.90
23723;DHT22;12042;52.136;5.584;2022-09-29T13:37:22;19.20;99.90
23723;DHT22;12042;52.136;5.584;2022-09-29T13:40:04;19.20;99.90
23723;DHT22;12042;52.136;5.584;2022-09-29T13:47:51;18.70;99.90
23723;DHT22;12042;52.136;5.584;2022-09-29T13:50:49;18.50;99.90
23723;DHT22;12042;52.136;5.584;2022-09-29T13:58:59;19.40;99.90
23723;DHT22;12042;52.136;5.584;2022-09-29T14:01:32;19.30;99.90
23723;DHT22;12042;52.136;5.584;2022-09-29T14:07:03;19.30;99.90
23723;DHT22;12042;52.136;5.584;2022-09-29T14:09:32;19.10;99.90
23723;DHT22;12042;52.136;5.584;2022-09-29T14:12:04;18.80;99.90
23723;DHT22;12042;52.136;5.584;2022-09-29T14:14:36;18.50;99.90
23723;DHT22;12042;52.136;5.584;2022-09-29T14:17:09;18.60;99.90
23723;DHT22;12042;52.136;5.584;2022-09-29T14:19:45;18.70;99.90
23723;DHT22;12042;52.136;5.584;2022-09-29T14:27:38;19.70;99.90
23723;DHT22;12042;52.136;5.584;2022-09-29T14:30:19;19.50;99.90
23723;DHT22;12042;52.136;5.584;2022-09-29T14:32:52;19.20;99.90
23723;DHT22;12042;52.136;5.584;2022-09-29T14:35:35;19.40;99.90
23723;DHT22;12042;52.136;5.584;2022-09-29T14:38:16;19.60;99.90
23723;DHT22;12042;52.136;5.584;2022-09-29T14:40:55;19.80;99.90
23723;DHT22;12042;52.136;5.584;2022-09-29T14:43:25;19.40;99.90
23723;DHT22;12042;52.136;5.584;2022-09-29T14:52:56;19.60;99.90
23723;DHT22;12042;52.136;5.584;2022-09-29T14:58:47;18.90;99.90
23723;DHT22;12042;52.136;5.584;2022-09-29T15:01:28;19.10;99.90
23723;DHT22;12042;52.136;5.584;2022-09-29T15:04:08;19.30;99.90
23723;DHT22;12042;52.136;5.584;2022-09-29T15:06:47;19.60;99.90
23723;DHT22;12042;52.136;5.584;2022-09-29T15:09:22;19.90;99.90
23723;DHT22;12042;52.136;5.584;2022-09-29T15:11:52;20.00;99.90
23723;DHT22;12042;52.136;5.584;2022-09-29T15:14:29;20.50;99.90
23723;DHT22;12042;52.136;5.584;2022-09-29T15:20:22;21.50;99.90
23723;DHT22;12042;52.136;5.584;2022-09-29T15:25:35;22.20;99.90
23723;DHT22;12042;52.136;5.584;2022-09-29T15:28:26;22.20;99.90
23723;DHT22;12042;52.136;5.584;2022-09-29T15:30:55;22.20;99.90
23723;DHT22;12042;52.136;5.584;2022-09-29T15:33:28;21.90;99.90
23723;DHT22;12042;52.136;5.584;2022-09-29T15:36:02;21.80;99.90
23723;DHT22;12042;52.136;5.584;2022-09-29T15:38:37;21.60;99.90
23723;DHT22;12042;52.136;5.584;2022-09-29T15:43:56;21.20;99.90
23723;DHT22;12042;52.136;5.584;2022-09-29T15:46:45;21.20;99.90
23723;DHT22;12042;52.136;5.584;2022-09-29T15:51:42;21.40;99.90
23723;DHT22;12042;52.136;5.584;2022-09-29T15:54:11;21.30;99.90
23723;DHT22;12042;52.136;5.584;2022-09-29T15:56:38;21.20;99.90
23723;DHT22;12042;52.136;5.584;2022-09-29T15:59:41;20.90;99.90
23723;DHT22;12042;52.136;5.584;2022-09-29T16:02:22;20.70;99.90
23723;DHT22;12042;52.136;5.584;2022-09-29T16:04:54;20.30;99.90
23723;DHT22;12042;52.136;5.584;2022-09-29T16:07:34;19.80;99.90
23723;DHT22;12042;52.136;5.584;2022-09-29T16:10:14;19.00;99.90
23723;DHT22;12042;52.136;5.584;2022-09-29T16:12:47;18.60;99.90
23723;DHT22;12042;52.136;5.584;2022-09-29T16:17:49;18.50;99.90
23723;DHT22;12042;52.136;5.584;2022-09-29T16:20:21;18.50;99.90
23723;DHT22;12042;52.136;5.584;2022-09-29T16:22:48;18.50;99.90
23723;DHT22;12042;52.136;5.584;2022-09-29T16:25:28;18.40;99.90
23723;DHT22;12042;52.136;5.584;2022-09-29T16:27:58;18.20;99.90
23723;DHT22;12042;52.136;5.584;2022-09-29T16:30:28;18.40;99.90
23723;DHT22;12042;52.136;5.584;2022-09-29T16:33:11;18.40;99.90
23723;DHT22;12042;52.136;5.584;2022-09-29T16:35:44;18.20;99.90
23723;DHT22;12042;52.136;5.584;2022-09-29T16:38:17;18.10;99.90
23723;DHT22;12042;52.136;5.584;2022-09-29T16:40:44;18.30;99.90
23723;DHT22;12042;52.136;5.584;2022-09-29T16:43:20;18.50;99.90
23723;DHT22;12042;52.136;5.584;2022-09-29T16:45:52;18.80;99.90
23723;DHT22;12042;52.136;5.584;2022-09-29T16:48:19;18.90;99.90
23723;DHT22;12042;52.136;5.584;2022-09-29T16:50:51;18.80;99.90
23723;DHT22;12042;52.136;5.584;2022-09-29T16:53:36;18.70;99.90
23723;DHT22;12042;52.136;5.584;2022-09-29T16:56:27;18.50;99.90
23723;DHT22;12042;52.136;5.584;2022-09-29T16:59:16;18.30;99.90
23723;DHT22;12042;52.136;5.584;2022-09-29T17:01:43;18.20;99.90
23723;DHT22;12042;52.136;5.584;2022-09-29T17:04:11;18.00;99.90
23723;DHT22;12042;52.136;5.584;2022-09-29T17:06:38;17.80;99.90
23723;DHT22;12042;52.136;5.584;2022-09-29T17:09:14;17.50;99.90
23723;DHT22;12042;52.136;5.584;2022-09-29T17:11:40;17.40;99.90
23723;DHT22;12042;52.136;5.584;2022-09-29T17:14:09;17.20;99.90
23723;DHT22;12042;52.136;5.584;2022-09-29T17:16:37;17.20;99.90
23723;DHT22;12042;52.136;5.584;2022-09-29T17:19:09;17.00;99.90
23723;DHT22;12042;52.136;5.584;2022-09-29T17:21:36;16.90;99.90
23723;DHT22;12042;52.136;5.584;2022-09-29T17:24:02;16.60;99.90
23723;DHT22;12042;52.136;5.584;2022-09-29T17:26:39;16.40;99.90
23723;DHT22;12042;52.136;5.584;2022-09-29T17:29:26;16.10;99.90
23723;DHT22;12042;52.136;5.584;2022-09-29T17:31:53;16.00;99.90
23723;DHT22;12042;52.136;5.584;2022-09-29T17:34:18;15.90;99.90
23723;DHT22;12042;52.136;5.584;2022-09-29T17:36:57;15.80;99.90
23723;DHT22;12042;52.136;5.584;2022-09-29T17:39:26;15.60;99.90
23723;DHT22;12042;52.136;5.584;2022-09-29T17:41:54;15.60;99.90
23723;DHT22;12042;52.136;5.584;2022-09-29T17:44:20;15.50;99.90
23723;DHT22;12042;52.136;5.584;2022-09-29T17:46:46;15.40;99.90
23723;DHT22;12042;52.136;5.584;2022-09-29T17:49:13;15.30;99.90
23723;DHT22;12042;52.136;5.584;2022-09-29T17:51:45;15.20;99.90
23723;DHT22;12042;52.136;5.584;2022-09-29T17:54:10;15.10;99.90
23723;DHT22;12042;52.136;5.584;2022-09-29T17:56:40;15.00;99.90
23723;DHT22;12042;52.136;5.584;2022-09-29T17:59:06;15.00;99.90
23723;DHT22;12042;52.136;5.584;2022-09-29T18:01:36;15.00;99.90
23723;DHT22;12042;52.136;5.584;2022-09-29T18:04:03;14.90;99.90
23723;DHT22;12042;52.136;5.584;2022-09-29T18:06:29;14.90;99.90
23723;DHT22;12042;52.136;5.584;2022-09-29T18:08:59;14.90;99.90
23723;DHT22;12042;52.136;5.584;2022-09-29T18:11:25;14.80;99.90
23723;DHT22;12042;52.136;5.584;2022-09-29T18:13:51;14.70;99.90
23723;DHT22;12042;52.136;5.584;2022-09-29T18:16:20;14.60;99.90
23723;DHT22;12042;52.136;5.584;2022-09-29T18:18:45;14.60;99.90
23723;DHT22;12042;52.136;5.584;2022-09-29T18:21:12;14.50;99.90
23723;DHT22;12042;52.136;5.584;2022-09-29T18:23:39;14.40;99.90
23723;DHT22;12042;52.136;5.584;2022-09-29T18:26:06;14.40;99.90
23723;DHT22;12042;52.136;5.584;2022-09-29T18:28:31;14.40;99.90
23723;DHT22;12042;52.136;5.584;2022-09-29T18:33:44;14.30;99.90
23723;DHT22;12042;52.136;5.584;2022-09-29T18:36:11;14.30;99.90
23723;DHT22;12042;52.136;5.584;2022-09-29T18:38:36;14.30;99.90
23723;DHT22;12042;52.136;5.584;2022-09-29T18:41:02;14.30;99.90
23723;DHT22;12042;52.136;5.584;2022-09-29T18:43:27;14.30;99.90
23723;DHT22;12042;52.136;5.584;2022-09-29T18:45:54;14.30;99.90
23723;DHT22;12042;52.136;5.584;2022-09-29T18:48:20;14.20;99.90
23723;DHT22;12042;52.136;5.584;2022-09-29T18:50:48;14.10;99.90
23723;DHT22;12042;52.136;5.584;2022-09-29T18:53:16;14.00;99.90
23723;DHT22;12042;52.136;5.584;2022-09-29T18:55:44;14.10;99.90
23723;DHT22;12042;52.136;5.584;2022-09-29T18:58:14;14.00;99.90
23723;DHT22;12042;52.136;5.584;2022-09-29T19:00:43;14.00;99.90
23723;DHT22;12042;52.136;5.584;2022-09-29T19:03:10;13.90;99.90
23723;DHT22;12042;52.136;5.584;2022-09-29T19:05:39;13.80;99.90
23723;DHT22;12042;52.136;5.584;2022-09-29T19:08:06;13.70;99.90